sensor_id;sensor_type;location;lat;lon;timestamp;pressure;altitude;pressure_sealevel;temperature;humidity
14253;BME280;7210;51.502;10.722;2023-07-13T00:01:35;99391.16;;;15.43;82.90
14253;BME280;7210;51.502;10.722;2023-07-13T00:04:04;99404.41;;;15.33;83.21
14253;BME280;7210;51.502;10.722;2023-07-13T00:06:31;99412.91;;;15.30;83.35
14253;BME280;7210;51.502;10.722;2023-07-13T00:09:05;99422.81;;;15.34;83.69
14253;BME280;7210;51.502;10.722;2023-07-13T00:11:32;99417.50;;;15.34;83.55
14253;BME280;7210;51.502;10.722;2023-07-13T00:14:01;99401.44;;;15.24;83.35
14253;BME280;7210;51.502;10.722;2023-07-13T00:16:29;99414.22;;;15.18;83.73
14253;BME280;7210;51.502;10.722;2023-07-13T00:18:56;99420.03;;;15.10;83.78
14253;BME280;7210;51.502;10.722;2023-07-13T00:21:26;99414.97;;;15.03;84.12
14253;BME280;7210;51.502;10.722;2023-07-13T00:23:58;99427.69;;;15.01;84.53
14253;BME280;7210;51.502;10.722;2023-07-13T00:26:27;99427.41;;;14.98;84.78
14253;BME280;7210;51.502;10.722;2023-07-13T00:29:00;99433.28;;;14.95;85.02
14253;BME280;7210;51.502;10.722;2023-07-13T00:31:40;99428.47;;;14.97;85.37
14253;BME280;7210;51.502;10.722;2023-07-13T00:34:40;99423.69;;;14.94;85.58
14253;BME280;7210;51.502;10.722;2023-07-13T00:37:08;99424.66;;;14.83;85.87
14253;BME280;7210;51.502;10.722;2023-07-13T00:39:46;99427.91;;;14.85;86.47
14253;BME280;7210;51.502;10.722;2023-07-13T00:42:14;99418.81;;;14.81;86.64
14253;BME280;7210;51.502;10.722;2023-07-13T00:45:06;99417.22;;;14.80;86.90
14253;BME280;7210;51.502;10.722;2023-07-13T00:47:34;99429.50;;;14.86;87.23
14253;BME280;7210;51.502;10.722;2023-07-13T00:50:09;99425.19;;;14.80;87.38
14253;BME280;7210;51.502;10.722;2023-07-13T00:52:45;99428.69;;;14.85;87.67
14253;BME280;7210;51.502;10.722;2023-07-13T00:55:18;99421.47;;;14.81;87.50
14253;BME280;7210;51.502;10.722;2023-07-13T00:57:45;99417.75;;;14.77;87.80
14253;BME280;7210;51.502;10.722;2023-07-13T01:00:14;99410.25;;;14.74;88.05
14253;BME280;7210;51.502;10.722;2023-07-13T01:02:48;99419.88;;;14.80;88.04
14253;BME280;7210;51.502;10.722;2023-07-13T01:05:28;99414.03;;;14.83;88.29
14253;BME280;7210;51.502;10.722;2023-07-13T01:07:55;99412.81;;;15.05;87.64
14253;BME280;7210;51.502;10.722;2023-07-13T01:10:23;99397.47;;;15.27;86.90
14253;BME280;7210;51.502;10.722;2023-07-13T01:12:58;99391.94;;;15.43;85.92
14253;BME280;7210;51.502;10.722;2023-07-13T01:15:44;99372.25;;;15.49;84.86
14253;BME280;7210;51.502;10.722;2023-07-13T01:18:16;99367.97;;;15.48;84.50
14253;BME280;7210;51.502;10.722;2023-07-13T01:20:52;99370.63;;;15.48;84.17
14253;BME280;7210;51.502;10.722;2023-07-13T01:23:20;99370.63;;;15.38;84.04
14253;BME280;7210;51.502;10.722;2023-07-13T01:25:59;99372.91;;;15.15;84.15
14253;BME280;7210;51.502;10.722;2023-07-13T01:28:28;99376.28;;;14.96;84.69
14253;BME280;7210;51.502;10.722;2023-07-13T01:30:58;99390.63;;;14.85;85.20
14253;BME280;7210;51.502;10.722;2023-07-13T01:33:26;99390.56;;;14.70;85.72
14253;BME280;7210;51.502;10.722;2023-07-13T01:35:55;99421.19;;;14.77;86.11
14253;BME280;7210;51.502;10.722;2023-07-13T01:38:24;99424.66;;;14.83;86.33
14253;BME280;7210;51.502;10.722;2023-07-13T01:40:53;99430.06;;;14.93;86.40
14253;BME280;7210;51.502;10.722;2023-07-13T01:43:22;99411.22;;;15.04;85.74
14253;BME280;7210;51.502;10.722;2023-07-13T01:45:50;99416.03;;;15.07;85.32
14253;BME280;7210;51.502;10.722;2023-07-13T01:48:17;99413.31;;;15.02;85.21
14253;BME280;7210;51.502;10.722;2023-07-13T01:50:45;99405.53;;;14.91;85.32
14253;BME280;7210;51.502;10.722;2023-07-13T01:53:14;99413.00;;;14.89;85.52
14253;BME280;7210;51.502;10.722;2023-07-13T01:55:46;99404.47;;;14.87;85.58
14253;BME280;7210;51.502;10.722;2023-07-13T01:58:16;99416.69;;;14.78;85.44
14253;BME280;7210;51.502;10.722;2023-07-13T02:00:48;99417.09;;;14.60;86.09
14253;BME280;7210;51.502;10.722;2023-07-13T02:03:16;99413.19;;;14.36;86.56
14253;BME280;7210;51.502;10.722;2023-07-13T02:05:46;99416.84;;;14.25;87.06
14253;BME280;7210;51.502;10.722;2023-07-13T02:08:14;99424.78;;;14.20;87.43
14253;BME280;7210;51.502;10.722;2023-07-13T02:10:41;99409.22;;;14.07;87.92
14253;BME280;7210;51.502;10.722;2023-07-13T02:13:16;99406.00;;;14.05;88.56
14253;BME280;7210;51.502;10.722;2023-07-13T02:15:53;99409.09;;;13.92;88.93
14253;BME280;7210;51.502;10.722;2023-07-13T02:18:20;99405.84;;;13.85;89.12
14253;BME280;7210;51.502;10.722;2023-07-13T02:20:47;99406.84;;;13.79;89.42
14253;BME280;7210;51.502;10.722;2023-07-13T02:23:16;99411.16;;;13.85;89.65
14253;BME280;7210;51.502;10.722;2023-07-13T02:25:46;99399.13;;;13.77;89.82
14253;BME280;7210;51.502;10.722;2023-07-13T02:28:46;99395.06;;;13.70;89.88
14253;BME280;7210;51.502;10.722;2023-07-13T02:31:22;99393.41;;;13.64;90.15
14253;BME280;7210;51.502;10.722;2023-07-13T02:33:58;99386.41;;;13.53;90.44
14253;BME280;7210;51.502;10.722;2023-07-13T02:36:25;99378.88;;;13.45;90.61
14253;BME280;7210;51.502;10.722;2023-07-13T02:38:54;99384.91;;;13.40;91.00
14253;BME280;7210;51.502;10.722;2023-07-13T02:41:21;99380.88;;;13.33;91.20
14253;BME280;7210;51.502;10.722;2023-07-13T02:43:49;99377.91;;;13.29;91.24
14253;BME280;7210;51.502;10.722;2023-07-13T02:46:22;99370.94;;;13.23;91.34
14253;BME280;7210;51.502;10.722;2023-07-13T02:48:51;99372.06;;;13.27;91.50
14253;BME280;7210;51.502;10.722;2023-07-13T02:51:22;99369.72;;;13.31;91.66
14253;BME280;7210;51.502;10.722;2023-07-13T02:53:49;99364.69;;;13.34;91.72
14253;BME280;7210;51.502;10.722;2023-07-13T02:56:27;99359.63;;;13.33;91.67
14253;BME280;7210;51.502;10.722;2023-07-13T02:58:58;99362.72;;;13.25;91.62
14253;BME280;7210;51.502;10.722;2023-07-13T03:01:26;99355.72;;;13.14;91.85
14253;BME280;7210;51.502;10.722;2023-07-13T03:04:05;99350.28;;;13.04;91.85
14253;BME280;7210;51.502;10.722;2023-07-13T03:06:35;99358.94;;;12.94;92.02
14253;BME280;7210;51.502;10.722;2023-07-13T03:09:04;99352.59;;;12.95;92.04
14253;BME280;7210;51.502;10.722;2023-07-13T03:11:35;99361.91;;;12.98;92.14
14253;BME280;7210;51.502;10.722;2023-07-13T03:14:13;99353.97;;;13.03;92.02
14253;BME280;7210;51.502;10.722;2023-07-13T03:16:46;99352.00;;;13.15;91.65
14253;BME280;7210;51.502;10.722;2023-07-13T03:19:14;99361.44;;;13.27;91.35
14253;BME280;7210;51.502;10.722;2023-07-13T03:21:52;99356.31;;;13.21;91.13
14253;BME280;7210;51.502;10.722;2023-07-13T03:24:20;99357.63;;;13.18;91.13
14253;BME280;7210;51.502;10.722;2023-07-13T03:26:52;99355.09;;;13.07;91.28
14253;BME280;7210;51.502;10.722;2023-07-13T03:29:23;99366.72;;;13.01;91.43
14253;BME280;7210;51.502;10.722;2023-07-13T03:31:52;99378.31;;;12.95;91.75
14253;BME280;7210;51.502;10.722;2023-07-13T03:34:22;99379.75;;;12.86;92.00
14253;BME280;7210;51.502;10.722;2023-07-13T03:36:50;99386.13;;;12.85;92.28
14253;BME280;7210;51.502;10.722;2023-07-13T03:39:22;99390.25;;;12.76;92.30
14253;BME280;7210;51.502;10.722;2023-07-13T03:41:55;99392.19;;;12.64;92.70
14253;BME280;7210;51.502;10.722;2023-07-13T03:44:22;99399.09;;;12.65;93.16
14253;BME280;7210;51.502;10.722;2023-07-13T03:46:58;99400.16;;;12.64;93.52
14253;BME280;7210;51.502;10.722;2023-07-13T03:49:25;99402.81;;;12.64;94.00
14253;BME280;7210;51.502;10.722;2023-07-13T03:51:58;99414.59;;;12.73;94.17
14253;BME280;7210;51.502;10.722;2023-07-13T03:54:26;99413.41;;;12.64;94.34
14253;BME280;7210;51.502;10.722;2023-07-13T03:57:12;99412.00;;;12.56;94.56
14253;BME280;7210;51.502;10.722;2023-07-13T03:59:39;99416.63;;;12.66;94.68
14253;BME280;7210;51.502;10.722;2023-07-13T04:02:08;99424.72;;;12.76;94.51
14253;BME280;7210;51.502;10.722;2023-07-13T04:04:40;99413.19;;;12.87;94.27
14253;BME280;7210;51.502;10.722;2023-07-13T04:07:07;99395.16;;;12.89;94.25
14253;BME280;7210;51.502;10.722;2023-07-13T04:09:37;99406.09;;;13.09;93.54
14253;BME280;7210;51.502;10.722;2023-07-13T04:12:06;99396.56;;;13.13;92.78
14253;BME280;7210;51.502;10.722;2023-07-13T04:14:34;99404.66;;;13.23;92.77
14253;BME280;7210;51.502;10.722;2023-07-13T04:17:02;99400.41;;;13.22;92.21
14253;BME280;7210;51.502;10.722;2023-07-13T04:19:29;99404.69;;;13.28;92.19
14253;BME280;7210;51.502;10.722;2023-07-13T04:21:56;99410.53;;;13.25;91.93
14253;BME280;7210;51.502;10.722;2023-07-13T04:24:23;99409.72;;;13.24;91.90
14253;BME280;7210;51.502;10.722;2023-07-13T04:26:58;99419.03;;;13.27;91.90
14253;BME280;7210;51.502;10.722;2023-07-13T04:29:27;99415.28;;;13.23;92.00
14253;BME280;7210;51.502;10.722;2023-07-13T04:31:56;99427.00;;;13.27;92.38
14253;BME280;7210;51.502;10.722;2023-07-13T04:34:28;99436.41;;;13.34;92.69
14253;BME280;7210;51.502;10.722;2023-07-13T04:37:05;99446.94;;;13.51;93.00
14253;BME280;7210;51.502;10.722;2023-07-13T04:39:33;99448.44;;;13.68;93.31
14253;BME280;7210;51.502;10.722;2023-07-13T04:42:00;99448.91;;;13.87;93.46
14253;BME280;7210;51.502;10.722;2023-07-13T04:44:27;99456.03;;;14.08;93.48
14253;BME280;7210;51.502;10.722;2023-07-13T04:46:55;99463.13;;;14.24;93.65
14253;BME280;7210;51.502;10.722;2023-07-13T04:49:23;99460.88;;;14.42;93.38
14253;BME280;7210;51.502;10.722;2023-07-13T04:51:52;99464.44;;;14.58;93.17
14253;BME280;7210;51.502;10.722;2023-07-13T04:54:22;99472.81;;;14.76;92.95
14253;BME280;7210;51.502;10.722;2023-07-13T04:56:52;99465.94;;;14.85;92.30
14253;BME280;7210;51.502;10.722;2023-07-13T04:59:19;99462.88;;;15.03;91.67
14253;BME280;7210;51.502;10.722;2023-07-13T05:01:53;99461.34;;;15.17;91.24
14253;BME280;7210;51.502;10.722;2023-07-13T05:04:47;99468.16;;;15.39;90.69
14253;BME280;7210;51.502;10.722;2023-07-13T05:07:16;99477.28;;;15.68;90.41
14253;BME280;7210;51.502;10.722;2023-07-13T05:09:44;99467.75;;;15.87;89.62
14253;BME280;7210;51.502;10.722;2023-07-13T05:12:10;99484.31;;;16.14;88.93
14253;BME280;7210;51.502;10.722;2023-07-13T05:14:37;99478.47;;;16.32;88.49
14253;BME280;7210;51.502;10.722;2023-07-13T05:17:05;99481.44;;;16.61;87.35
14253;BME280;7210;51.502;10.722;2023-07-13T05:19:33;99473.94;;;16.83;86.12
14253;BME280;7210;51.502;10.722;2023-07-13T05:22:01;99474.19;;;16.81;85.11
14253;BME280;7210;51.502;10.722;2023-07-13T05:24:30;99478.22;;;16.79;84.25
14253;BME280;7210;51.502;10.722;2023-07-13T05:26:57;99475.31;;;16.70;83.66
14253;BME280;7210;51.502;10.722;2023-07-13T05:29:25;99491.31;;;16.60;83.74
14253;BME280;7210;51.502;10.722;2023-07-13T05:31:53;99511.06;;;16.59;84.20
14253;BME280;7210;51.502;10.722;2023-07-13T05:34:35;99524.94;;;16.66;84.40
14253;BME280;7210;51.502;10.722;2023-07-13T05:37:18;99546.31;;;16.81;84.75
14253;BME280;7210;51.502;10.722;2023-07-13T05:40:05;99555.13;;;16.97;84.59
14253;BME280;7210;51.502;10.722;2023-07-13T05:42:34;99561.53;;;17.01;84.47
14253;BME280;7210;51.502;10.722;2023-07-13T05:45:05;99564.47;;;17.09;84.15
14253;BME280;7210;51.502;10.722;2023-07-13T05:47:33;99565.25;;;17.15;83.73
14253;BME280;7210;51.502;10.722;2023-07-13T05:50:00;99573.53;;;17.18;83.68
14253;BME280;7210;51.502;10.722;2023-07-13T05:52:29;99597.56;;;17.23;84.04
14253;BME280;7210;51.502;10.722;2023-07-13T05:54:56;99617.88;;;17.34;84.13
14253;BME280;7210;51.502;10.722;2023-07-13T05:57:30;99595.97;;;17.42;83.49
14253;BME280;7210;51.502;10.722;2023-07-13T05:59:58;99597.00;;;17.56;83.01
14253;BME280;7210;51.502;10.722;2023-07-13T06:02:26;99607.41;;;17.68;82.74
14253;BME280;7210;51.502;10.722;2023-07-13T06:04:53;99614.56;;;17.77;82.22
14253;BME280;7210;51.502;10.722;2023-07-13T06:07:23;99606.53;;;17.87;81.23
14253;BME280;7210;51.502;10.722;2023-07-13T06:09:51;99616.13;;;17.98;80.71
14253;BME280;7210;51.502;10.722;2023-07-13T06:12:18;99624.59;;;18.15;79.90
14253;BME280;7210;51.502;10.722;2023-07-13T06:14:53;99624.03;;;18.23;79.41
14253;BME280;7210;51.502;10.722;2023-07-13T06:17:22;99632.00;;;18.38;78.53
14253;BME280;7210;51.502;10.722;2023-07-13T06:19:52;99637.00;;;18.55;76.98
14253;BME280;7210;51.502;10.722;2023-07-13T06:22:20;99630.25;;;18.62;75.92
14253;BME280;7210;51.502;10.722;2023-07-13T06:24:54;99670.16;;;18.69;75.89
14253;BME280;7210;51.502;10.722;2023-07-13T06:27:22;99684.81;;;18.81;75.32
14253;BME280;7210;51.502;10.722;2023-07-13T06:29:50;99684.16;;;18.94;74.54
14253;BME280;7210;51.502;10.722;2023-07-13T06:32:17;99705.06;;;18.97;74.32
14253;BME280;7210;51.502;10.722;2023-07-13T06:34:46;99721.06;;;19.07;73.77
14253;BME280;7210;51.502;10.722;2023-07-13T06:37:19;99724.25;;;19.09;73.18
14253;BME280;7210;51.502;10.722;2023-07-13T06:39:54;99728.53;;;19.15;72.43
14253;BME280;7210;51.502;10.722;2023-07-13T06:42:21;99746.19;;;19.26;72.12
14253;BME280;7210;51.502;10.722;2023-07-13T06:44:49;99769.72;;;19.34;71.74
14253;BME280;7210;51.502;10.722;2023-07-13T06:47:35;99755.38;;;19.48;70.38
14253;BME280;7210;51.502;10.722;2023-07-13T06:50:06;99772.22;;;19.59;69.71
14253;BME280;7210;51.502;10.722;2023-07-13T06:52:33;99774.56;;;19.65;69.18
14253;BME280;7210;51.502;10.722;2023-07-13T06:55:03;99768.34;;;19.70;68.27
14253;BME280;7210;51.502;10.722;2023-07-13T06:57:30;99797.19;;;19.88;67.90
14253;BME280;7210;51.502;10.722;2023-07-13T06:59:58;99749.13;;;19.91;65.56
14253;BME280;7210;51.502;10.722;2023-07-13T07:02:35;99769.75;;;19.96;64.68
14253;BME280;7210;51.502;10.722;2023-07-13T07:05:02;99772.09;;;20.02;63.92
14253;BME280;7210;51.502;10.722;2023-07-13T07:07:35;99801.34;;;20.04;64.11
14253;BME280;7210;51.502;10.722;2023-07-13T07:10:04;99812.59;;;20.11;63.28
14253;BME280;7210;51.502;10.722;2023-07-13T07:12:31;99809.38;;;20.09;62.91
14253;BME280;7210;51.502;10.722;2023-07-13T07:15:05;99832.19;;;20.06;62.87
14253;BME280;7210;51.502;10.722;2023-07-13T07:17:33;99837.81;;;20.10;62.46
14253;BME280;7210;51.502;10.722;2023-07-13T07:20:11;99824.13;;;20.11;62.21
14253;BME280;7210;51.502;10.722;2023-07-13T07:22:39;99816.19;;;20.25;61.03
14253;BME280;7210;51.502;10.722;2023-07-13T07:25:08;99837.06;;;20.33;60.83
14253;BME280;7210;51.502;10.722;2023-07-13T07:27:47;99855.53;;;20.39;60.34
14253;BME280;7210;51.502;10.722;2023-07-13T07:30:22;99847.13;;;20.46;59.78
14253;BME280;7210;51.502;10.722;2023-07-13T07:32:50;99852.25;;;20.47;59.30
14253;BME280;7210;51.502;10.722;2023-07-13T07:35:17;99867.63;;;20.42;59.66
14253;BME280;7210;51.502;10.722;2023-07-13T07:37:44;99891.19;;;20.50;59.70
14253;BME280;7210;51.502;10.722;2023-07-13T07:40:13;99906.06;;;20.66;59.13
14253;BME280;7210;51.502;10.722;2023-07-13T07:42:41;99906.56;;;20.68;59.34
14253;BME280;7210;51.502;10.722;2023-07-13T07:45:09;99923.09;;;20.80;59.00
14253;BME280;7210;51.502;10.722;2023-07-13T07:47:40;99894.06;;;20.82;58.39
14253;BME280;7210;51.502;10.722;2023-07-13T07:50:11;99931.94;;;20.85;59.03
14253;BME280;7210;51.502;10.722;2023-07-13T07:52:38;99926.81;;;20.84;58.95
14253;BME280;7210;51.502;10.722;2023-07-13T07:55:07;99900.91;;;20.98;57.65
14253;BME280;7210;51.502;10.722;2023-07-13T07:57:36;99886.41;;;20.94;57.51
14253;BME280;7210;51.502;10.722;2023-07-13T08:00:22;99909.97;;;21.02;57.60
14253;BME280;7210;51.502;10.722;2023-07-13T08:02:52;99915.41;;;21.20;56.80
14253;BME280;7210;51.502;10.722;2023-07-13T08:05:20;99908.59;;;21.28;55.75
14253;BME280;7210;51.502;10.722;2023-07-13T08:08:10;99906.63;;;21.33;55.77
14253;BME280;7210;51.502;10.722;2023-07-13T08:10:37;99909.41;;;21.47;54.98
14253;BME280;7210;51.502;10.722;2023-07-13T08:13:18;99940.19;;;21.59;54.83
14253;BME280;7210;51.502;10.722;2023-07-13T08:15:52;99918.31;;;21.47;54.89
14253;BME280;7210;51.502;10.722;2023-07-13T08:18:20;99953.97;;;21.58;54.57
14253;BME280;7210;51.502;10.722;2023-07-13T08:20:52;99966.50;;;21.86;53.99
14253;BME280;7210;51.502;10.722;2023-07-13T08:23:23;99982.28;;;21.92;54.06
14253;BME280;7210;51.502;10.722;2023-07-13T08:25:59;99999.66;;;22.05;54.14
14253;BME280;7210;51.502;10.722;2023-07-13T08:28:28;99984.25;;;22.24;52.96
14253;BME280;7210;51.502;10.722;2023-07-13T08:31:10;99994.38;;;22.32;53.33
14253;BME280;7210;51.502;10.722;2023-07-13T08:33:41;99992.78;;;22.31;53.12
14253;BME280;7210;51.502;10.722;2023-07-13T08:36:08;99986.56;;;22.30;53.12
14253;BME280;7210;51.502;10.722;2023-07-13T08:38:53;99998.00;;;22.41;52.80
14253;BME280;7210;51.502;10.722;2023-07-13T08:41:21;99985.19;;;22.33;52.12
14253;BME280;7210;51.502;10.722;2023-07-13T08:43:55;99994.00;;;22.38;52.32
14253;BME280;7210;51.502;10.722;2023-07-13T08:46:41;99969.97;;;22.42;51.89
14253;BME280;7210;51.502;10.722;2023-07-13T08:49:15;99997.69;;;22.47;51.85
14253;BME280;7210;51.502;10.722;2023-07-13T08:51:47;100012.03;;;22.75;51.34
14253;BME280;7210;51.502;10.722;2023-07-13T08:54:33;100036.56;;;22.92;51.33
14253;BME280;7210;51.502;10.722;2023-07-13T08:57:10;100014.91;;;23.10;50.59
14253;BME280;7210;51.502;10.722;2023-07-13T08:59:48;100039.66;;;23.31;50.37
14253;BME280;7210;51.502;10.722;2023-07-13T09:02:26;99953.81;;;23.01;49.52
14253;BME280;7210;51.502;10.722;2023-07-13T09:05:03;100008.19;;;23.08;50.15
14253;BME280;7210;51.502;10.722;2023-07-13T09:07:48;100001.66;;;23.27;49.62
14253;BME280;7210;51.502;10.722;2023-07-13T09:10:27;99998.41;;;23.12;49.90
14253;BME280;7210;51.502;10.722;2023-07-13T09:13:15;100024.94;;;23.23;50.27
14253;BME280;7210;51.502;10.722;2023-07-13T09:15:48;100056.44;;;23.55;49.71
14253;BME280;7210;51.502;10.722;2023-07-13T09:18:23;100038.44;;;23.64;49.29
14253;BME280;7210;51.502;10.722;2023-07-13T09:20:56;100051.84;;;23.95;48.76
14253;BME280;7210;51.502;10.722;2023-07-13T09:23:27;100044.72;;;24.13;48.19
14253;BME280;7210;51.502;10.722;2023-07-13T09:26:04;99932.19;;;23.68;47.13
14253;BME280;7210;51.502;10.722;2023-07-13T09:28:39;99936.66;;;23.37;48.02
14253;BME280;7210;51.502;10.722;2023-07-13T09:31:14;100013.47;;;23.45;48.48
14253;BME280;7210;51.502;10.722;2023-07-13T09:33:43;100027.34;;;23.65;47.98
14253;BME280;7210;51.502;10.722;2023-07-13T09:36:27;100017.53;;;23.83;47.60
14253;BME280;7210;51.502;10.722;2023-07-13T09:39:03;100040.63;;;23.88;47.85
14253;BME280;7210;51.502;10.722;2023-07-13T09:41:43;100026.22;;;23.93;47.58
14253;BME280;7210;51.502;10.722;2023-07-13T09:44:30;100013.91;;;24.00;47.26
14253;BME280;7210;51.502;10.722;2023-07-13T09:46:59;99999.81;;;23.90;47.03
14253;BME280;7210;51.502;10.722;2023-07-13T09:49:33;100067.56;;;23.93;48.31
14253;BME280;7210;51.502;10.722;2023-07-13T09:52:03;100071.44;;;24.14;48.08
14253;BME280;7210;51.502;10.722;2023-07-13T09:54:36;100021.94;;;24.27;46.85
14253;BME280;7210;51.502;10.722;2023-07-13T09:57:13;99998.94;;;24.16;46.94
14253;BME280;7210;51.502;10.722;2023-07-13T09:59:52;99999.91;;;23.98;47.17
14253;BME280;7210;51.502;10.722;2023-07-13T10:02:30;100033.69;;;24.09;47.13
14253;BME280;7210;51.502;10.722;2023-07-13T10:05:02;99966.97;;;23.96;46.18
14253;BME280;7210;51.502;10.722;2023-07-13T10:07:42;99969.38;;;23.84;46.46
14253;BME280;7210;51.502;10.722;2023-07-13T10:10:16;100001.00;;;23.97;46.78
14253;BME280;7210;51.502;10.722;2023-07-13T10:12:52;100051.91;;;24.17;46.86
14253;BME280;7210;51.502;10.722;2023-07-13T10:15:24;99996.91;;;24.22;46.06
14253;BME280;7210;51.502;10.722;2023-07-13T10:18:00;100047.56;;;24.30;46.43
14253;BME280;7210;51.502;10.722;2023-07-13T10:20:28;100079.22;;;24.65;46.33
14253;BME280;7210;51.502;10.722;2023-07-13T10:23:02;100076.19;;;24.88;45.63
14253;BME280;7210;51.502;10.722;2023-07-13T10:25:36;100084.94;;;25.07;45.48
14253;BME280;7210;51.502;10.722;2023-07-13T10:28:15;100000.31;;;24.93;43.98
14253;BME280;7210;51.502;10.722;2023-07-13T10:30:49;100065.00;;;25.03;45.06
14253;BME280;7210;51.502;10.722;2023-07-13T10:33:21;100070.00;;;25.18;44.89
14253;BME280;7210;51.502;10.722;2023-07-13T10:36:01;100041.00;;;25.10;44.20
14253;BME280;7210;51.502;10.722;2023-07-13T10:38:41;100033.84;;;25.14;44.16
14253;BME280;7210;51.502;10.722;2023-07-13T10:41:14;100008.41;;;24.93;44.41
14253;BME280;7210;51.502;10.722;2023-07-13T10:43:46;100045.78;;;25.13;43.91
14253;BME280;7210;51.502;10.722;2023-07-13T10:46:19;100090.44;;;25.55;43.34
14253;BME280;7210;51.502;10.722;2023-07-13T10:48:53;100046.97;;;25.68;42.89
14253;BME280;7210;51.502;10.722;2023-07-13T10:51:23;100060.56;;;25.77;43.10
14253;BME280;7210;51.502;10.722;2023-07-13T10:54:15;99987.38;;;25.68;41.55
14253;BME280;7210;51.502;10.722;2023-07-13T10:56:44;100003.94;;;25.58;41.91
14253;BME280;7210;51.502;10.722;2023-07-13T10:59:17;99980.44;;;25.37;41.76
14253;BME280;7210;51.502;10.722;2023-07-13T11:01:54;99961.00;;;25.04;42.37
14253;BME280;7210;51.502;10.722;2023-07-13T11:04:26;100027.94;;;25.12;43.14
14253;BME280;7210;51.502;10.722;2023-07-13T11:06:59;100018.88;;;25.17;43.41
14253;BME280;7210;51.502;10.722;2023-07-13T11:09:39;100087.84;;;25.41;43.47
14253;BME280;7210;51.502;10.722;2023-07-13T11:12:26;100123.19;;;25.75;43.38
14253;BME280;7210;51.502;10.722;2023-07-13T11:15:27;100058.59;;;26.08;41.26
14253;BME280;7210;51.502;10.722;2023-07-13T11:18:03;100030.53;;;26.12;40.97
14253;BME280;7210;51.502;10.722;2023-07-13T11:20:39;99970.53;;;25.88;40.92
14253;BME280;7210;51.502;10.722;2023-07-13T11:23:30;100000.81;;;25.90;41.00
14253;BME280;7210;51.502;10.722;2023-07-13T11:26:50;99940.19;;;25.05;42.44
14253;BME280;7210;51.502;10.722;2023-07-13T11:29:37;99967.88;;;24.71;43.09
14253;BME280;7210;51.502;10.722;2023-07-13T11:32:25;99950.84;;;24.27;43.95
14253;BME280;7210;51.502;10.722;2023-07-13T11:34:57;100023.53;;;24.28;44.91
14253;BME280;7210;51.502;10.722;2023-07-13T11:37:38;100023.56;;;24.15;45.60
14253;BME280;7210;51.502;10.722;2023-07-13T11:40:12;100020.41;;;23.99;45.98
14253;BME280;7210;51.502;10.722;2023-07-13T11:42:40;100039.53;;;24.03;45.89
14253;BME280;7210;51.502;10.722;2023-07-13T11:45:20;100038.22;;;24.00;45.99
14253;BME280;7210;51.502;10.722;2023-07-13T11:47:49;100018.03;;;23.84;46.16
14253;BME280;7210;51.502;10.722;2023-07-13T11:50:20;100106.69;;;24.09;46.94
14253;BME280;7210;51.502;10.722;2023-07-13T11:52:50;100049.16;;;24.31;45.38
14253;BME280;7210;51.502;10.722;2023-07-13T11:55:22;100087.59;;;24.41;46.08
14253;BME280;7210;51.502;10.722;2023-07-13T11:58:10;100100.81;;;24.78;44.92
14253;BME280;7210;51.502;10.722;2023-07-13T12:00:38;100050.91;;;24.71;44.82
14253;BME280;7210;51.502;10.722;2023-07-13T12:03:07;100076.94;;;24.80;44.92
14253;BME280;7210;51.502;10.722;2023-07-13T12:05:56;100103.56;;;24.87;44.87
14253;BME280;7210;51.502;10.722;2023-07-13T12:08:25;100042.63;;;24.67;44.41
14253;BME280;7210;51.502;10.722;2023-07-13T12:11:06;100070.31;;;24.86;44.23
14253;BME280;7210;51.502;10.722;2023-07-13T12:13:38;100081.97;;;25.17;43.47
14253;BME280;7210;51.502;10.722;2023-07-13T12:16:17;100098.97;;;25.40;43.64
14253;BME280;7210;51.502;10.722;2023-07-13T12:19:01;100086.97;;;25.63;42.82
14253;BME280;7210;51.502;10.722;2023-07-13T12:21:32;100132.88;;;25.98;42.74
14253;BME280;7210;51.502;10.722;2023-07-13T12:24:03;100119.38;;;26.24;41.63
14253;BME280;7210;51.502;10.722;2023-07-13T12:26:32;100074.25;;;26.36;40.73
14253;BME280;7210;51.502;10.722;2023-07-13T12:29:01;100058.78;;;26.37;41.16
14253;BME280;7210;51.502;10.722;2023-07-13T12:31:40;100059.88;;;26.27;41.22
14253;BME280;7210;51.502;10.722;2023-07-13T12:34:10;100110.97;;;26.42;41.46
14253;BME280;7210;51.502;10.722;2023-07-13T12:36:47;100082.56;;;26.48;40.90
14253;BME280;7210;51.502;10.722;2023-07-13T12:39:23;100034.19;;;26.50;39.77
14253;BME280;7210;51.502;10.722;2023-07-13T12:41:53;99975.81;;;26.02;40.35
14253;BME280;7210;51.502;10.722;2023-07-13T12:44:29;100003.81;;;25.80;41.10
14253;BME280;7210;51.502;10.722;2023-07-13T12:47:04;99988.03;;;25.82;40.89
14253;BME280;7210;51.502;10.722;2023-07-13T12:49:47;99995.63;;;25.46;42.02
14253;BME280;7210;51.502;10.722;2023-07-13T12:52:20;99968.78;;;24.97;42.64
14253;BME280;7210;51.502;10.722;2023-07-13T12:54:58;99993.31;;;24.70;43.34
14253;BME280;7210;51.502;10.722;2023-07-13T12:57:29;100039.44;;;24.65;44.25
14253;BME280;7210;51.502;10.722;2023-07-13T12:59:59;100083.34;;;24.84;44.73
14253;BME280;7210;51.502;10.722;2023-07-13T13:02:32;100116.06;;;24.96;44.83
14253;BME280;7210;51.502;10.722;2023-07-13T13:05:05;100046.31;;;24.93;43.67
14253;BME280;7210;51.502;10.722;2023-07-13T13:07:33;100047.25;;;24.89;44.27
14253;BME280;7210;51.502;10.722;2023-07-13T13:10:11;100061.63;;;24.98;43.95
14253;BME280;7210;51.502;10.722;2023-07-13T13:12:41;100120.47;;;25.36;43.33
14253;BME280;7210;51.502;10.722;2023-07-13T13:15:09;100122.25;;;25.71;42.80
14253;BME280;7210;51.502;10.722;2023-07-13T13:17:38;100129.34;;;25.89;42.68
14253;BME280;7210;51.502;10.722;2023-07-13T13:20:14;100109.31;;;26.07;41.28
14253;BME280;7210;51.502;10.722;2023-07-13T13:22:42;100150.38;;;26.31;41.92
14253;BME280;7210;51.502;10.722;2023-07-13T13:25:13;100162.91;;;26.58;41.59
14253;BME280;7210;51.502;10.722;2023-07-13T13:27:43;100161.94;;;26.62;41.28